createdAt,value
2022-11-01T00:02:08.868Z,6.35
2022-11-01T00:04:35.592Z,6.20
2022-11-01T00:07:03.317Z,6.57
2022-11-01T00:09:30.118Z,6.88
2022-11-01T00:11:56.873Z,6.82
2022-11-01T00:14:23.568Z,8.18
2022-11-01T00:16:50.818Z,7.55
2022-11-01T00:19:17.760Z,7.03
2022-11-01T00:21:44.527Z,8.75
2022-11-01T00:24:11.394Z,8.27
2022-11-01T00:26:38.121Z,8.23
2022-11-01T00:29:04.841Z,7.15
2022-11-01T00:31:31.626Z,7.32
2022-11-01T00:33:58.454Z,7.22
2022-11-01T00:36:25.265Z,8.05
2022-11-01T00:38:52.723Z,6.80
2022-11-01T00:41:23.853Z,6.70
2022-11-01T00:43:50.629Z,7.43
2022-11-01T00:46:17.650Z,7.03
2022-11-01T00:48:44.634Z,7.53
2022-11-01T00:51:11.406Z,6.97
2022-11-01T00:53:38.097Z,6.05
2022-11-01T00:56:06.177Z,6.70
2022-11-01T00:58:33.304Z,7.20
2022-11-01T01:01:00.365Z,6.38
2022-11-01T01:03:27.205Z,6.75
2022-11-01T01:05:54.567Z,6.53
2022-11-01T01:08:21.787Z,7.32
2022-11-01T01:10:48.604Z,6.88
2022-11-01T01:13:15.368Z,6.72
2022-11-01T01:15:42.269Z,7.13
2022-11-01T01:18:09.240Z,6.97
2022-11-01T01:20:36.140Z,6.95
2022-11-01T01:23:03.142Z,5.93
2022-11-01T01:25:29.826Z,6.07
2022-11-01T01:27:57.035Z,6.82
2022-11-01T01:30:23.975Z,7.28
2022-11-01T01:32:50.932Z,7.00
2022-11-01T01:35:17.703Z,7.53
2022-11-01T01:37:44.638Z,7.47
2022-11-01T01:40:11.469Z,7.78
2022-11-01T01:42:42.854Z,7.43
2022-11-01T01:45:39.778Z,7.95
2022-11-01T01:48:21.011Z,7.50
2022-11-01T01:50:58.548Z,7.18
2022-11-01T01:53:31.966Z,6.95
2022-11-01T01:56:06.938Z,7.72
2022-11-01T01:58:44.720Z,7.57
2022-11-01T02:01:11.878Z,7.47
2022-11-01T02:03:39.661Z,6.95
2022-11-01T02:06:12.101Z,6.85
2022-11-01T02:08:50.125Z,7.18
2022-11-01T02:11:17.770Z,7.07
2022-11-01T02:13:44.918Z,6.70
2022-11-01T02:16:44.755Z,7.00
2022-11-01T02:19:30.000Z,5.97
2022-11-01T02:22:04.103Z,5.95
2022-11-01T02:25:23.195Z,6.05
2022-11-01T02:28:33.377Z,6.20
2022-11-01T02:31:14.903Z,5.60
2022-11-01T02:36:23.718Z,6.22
2022-11-01T02:38:59.681Z,6.10
2022-11-01T02:41:36.076Z,5.63
2022-11-01T02:44:04.533Z,6.15
2022-11-01T02:46:53.281Z,6.28
2022-11-01T02:49:20.444Z,5.43
2022-11-01T02:51:47.162Z,6.25
2022-11-01T02:54:22.002Z,5.57
2022-11-01T02:56:50.210Z,5.82
2022-11-01T02:59:23.024Z,5.38
2022-11-01T03:02:04.621Z,5.60
2022-11-01T03:04:31.388Z,5.03
2022-11-01T03:07:03.582Z,4.93
2022-11-01T03:09:30.470Z,5.07
2022-11-01T03:12:22.335Z,4.70
2022-11-01T03:14:58.906Z,4.80
2022-11-01T03:17:37.996Z,5.03
2022-11-01T03:20:21.363Z,4.55
2022-11-01T03:22:52.446Z,4.22
2022-11-01T03:25:44.357Z,4.82
2022-11-01T03:28:31.989Z,3.85
2022-11-01T03:31:11.693Z,3.97
2022-11-01T03:33:42.244Z,4.20
2022-11-01T03:36:14.489Z,3.80
2022-11-01T03:38:45.985Z,3.67
2022-11-01T03:41:15.607Z,4.93
2022-11-01T03:43:42.147Z,3.53
2022-11-01T03:46:09.184Z,4.15
2022-11-01T03:48:39.955Z,3.75
2022-11-01T03:51:06.632Z,4.32
2022-11-01T03:53:33.614Z,3.50
2022-11-01T03:56:00.622Z,4.07
2022-11-01T03:58:41.450Z,3.40
2022-11-01T04:01:16.180Z,3.85
2022-11-01T04:03:43.363Z,3.70
2022-11-01T04:06:10.202Z,3.95
2022-11-01T04:08:37.361Z,3.38
2022-11-01T04:11:04.297Z,3.80
2022-11-01T04:13:30.891Z,3.67
2022-11-01T04:16:16.705Z,3.72
2022-11-01T04:19:01.657Z,3.70
2022-11-01T04:21:29.406Z,3.80
2022-11-01T04:23:55.968Z,3.30
2022-11-01T04:26:23.976Z,3.80
2022-11-01T04:28:56.909Z,4.00
2022-11-01T04:31:35.012Z,3.03
2022-11-01T04:34:02.741Z,3.00
2022-11-01T04:36:29.347Z,3.20
2022-11-01T04:38:56.965Z,3.83
2022-11-01T04:41:25.105Z,3.17
2022-11-01T04:43:58.533Z,3.10
2022-11-01T04:46:25.147Z,3.38
2022-11-01T04:48:51.685Z,4.25
2022-11-01T04:51:18.415Z,3.05
2022-11-01T04:53:45.266Z,2.83
2022-11-01T04:56:13.297Z,2.92
2022-11-01T04:58:43.173Z,3.30
2022-11-01T05:01:13.632Z,2.92
2022-11-01T05:03:40.238Z,2.80
2022-11-01T05:06:07.133Z,2.95
2022-11-01T05:08:33.763Z,3.35
2022-11-01T05:11:00.257Z,3.33
2022-11-01T05:13:26.759Z,3.38
2022-11-01T05:16:17.549Z,2.70
2022-11-01T05:18:42.339Z,3.20
2022-11-01T05:21:08.908Z,2.97
2022-11-01T05:23:35.588Z,2.63
2022-11-01T05:26:02.088Z,2.75
2022-11-01T05:28:28.577Z,3.10
2022-11-01T05:30:55.069Z,2.78
2022-11-01T05:33:21.601Z,2.33
2022-11-01T05:35:48.097Z,2.58
2022-11-01T05:38:14.727Z,2.78
2022-11-01T05:40:41.249Z,2.75
2022-11-01T05:43:07.826Z,2.53
2022-11-01T05:45:34.418Z,1.83
2022-11-01T05:48:04.517Z,2.17
2022-11-01T05:50:31.007Z,2.38
2022-11-01T05:53:10.259Z,2.47
2022-11-01T05:55:37.380Z,2.58
2022-11-01T05:58:04.087Z,1.83
2022-11-01T06:00:31.152Z,1.90
2022-11-01T06:03:01.350Z,1.67
2022-11-01T06:05:28.710Z,1.73
2022-11-01T06:07:55.239Z,2.03
2022-11-01T06:10:22.077Z,1.70
2022-11-01T06:12:51.942Z,1.58
2022-11-01T06:15:18.657Z,1.40
2022-11-01T06:17:45.194Z,1.30
2022-11-01T06:20:11.942Z,1.20
2022-11-01T06:22:38.846Z,1.30
2022-11-01T06:25:06.076Z,1.00
2022-11-01T06:27:33.223Z,0.98
2022-11-01T06:29:59.703Z,1.30
2022-11-01T06:32:26.180Z,1.15
2022-11-01T06:34:52.716Z,1.20
2022-11-01T06:37:19.211Z,1.10
2022-11-01T06:39:45.894Z,0.98
2022-11-01T06:42:12.344Z,1.10
2022-11-01T06:44:38.882Z,1.00
2022-11-01T06:47:05.382Z,1.20
2022-11-01T06:49:32.155Z,1.05
2022-11-01T06:51:58.650Z,0.70
2022-11-01T06:54:25.753Z,1.27
2022-11-01T06:56:52.454Z,0.90
2022-11-01T06:59:19.154Z,0.88
2022-11-01T07:01:45.743Z,1.02
2022-11-01T07:06:44.030Z,1.30
2022-11-01T07:09:10.896Z,1.13
2022-11-01T07:11:37.483Z,1.10
2022-11-01T07:14:04.002Z,1.00
2022-11-01T07:16:31.309Z,1.20
2022-11-01T07:18:58.190Z,1.10
2022-11-01T07:21:24.958Z,1.40
2022-11-01T07:23:53.649Z,1.00
2022-11-01T07:26:20.728Z,1.20
2022-11-01T07:28:47.260Z,1.08
2022-11-01T07:31:13.724Z,0.98
2022-11-01T07:33:40.214Z,1.20
2022-11-01T07:36:07.211Z,1.05
2022-11-01T07:38:33.696Z,0.93
2022-11-01T07:41:00.239Z,0.93
2022-11-01T07:43:27.124Z,1.00
2022-11-01T07:45:53.731Z,1.58
2022-11-01T07:48:20.257Z,1.00
2022-11-01T07:50:46.929Z,0.98
2022-11-01T07:53:16.301Z,1.05
2022-11-01T07:55:43.901Z,1.23
2022-11-01T07:58:11.118Z,1.20
2022-11-01T08:00:38.379Z,1.60
2022-11-01T08:03:07.304Z,1.27
2022-11-01T08:05:33.979Z,0.82
2022-11-01T08:08:01.277Z,1.45
2022-11-01T08:10:28.858Z,1.05
2022-11-01T08:13:19.466Z,1.25
2022-11-01T08:15:46.933Z,1.17
2022-11-01T08:18:13.695Z,1.65
2022-11-01T08:20:41.097Z,1.30
2022-11-01T08:23:08.416Z,2.30
2022-11-01T08:25:35.240Z,1.65
2022-11-01T08:28:06.655Z,2.03
2022-11-01T08:33:01.591Z,1.65
2022-11-01T08:35:28.745Z,1.80
2022-11-01T08:37:55.363Z,2.13
2022-11-01T08:40:22.482Z,1.58
2022-11-01T08:42:49.401Z,1.73
2022-11-01T08:45:15.979Z,1.77
2022-11-01T08:47:43.151Z,1.58
2022-11-01T08:50:11.548Z,1.65
2022-11-01T08:52:38.751Z,1.40
2022-11-01T08:55:06.255Z,2.00
2022-11-01T08:57:32.892Z,2.22
2022-11-01T08:59:59.837Z,2.33
2022-11-01T09:02:26.478Z,1.98
2022-11-01T09:04:53.315Z,1.70
2022-11-01T09:07:19.865Z,1.85
2022-11-01T09:09:46.537Z,1.63
2022-11-01T09:12:14.753Z,1.73
2022-11-01T09:14:41.774Z,2.10
2022-11-01T09:17:08.347Z,1.95
2022-11-01T09:19:35.034Z,1.38
2022-11-01T09:22:01.587Z,1.75
2022-11-01T09:24:28.109Z,1.48
2022-11-01T09:26:54.769Z,1.50
2022-11-01T09:29:21.419Z,1.67
2022-11-01T09:31:52.757Z,1.52
2022-11-01T09:34:20.236Z,1.58
2022-11-01T09:36:47.533Z,1.38
2022-11-01T09:39:16.301Z,1.48
2022-11-01T09:41:47.238Z,1.55
2022-11-01T09:44:17.699Z,1.70
2022-11-01T09:46:53.462Z,1.70
2022-11-01T09:49:25.734Z,1.80
2022-11-01T09:51:52.418Z,1.40
2022-11-01T09:54:23.373Z,1.45
2022-11-01T09:56:52.780Z,1.60
2022-11-01T09:59:28.070Z,1.63
2022-11-01T10:02:19.675Z,1.48
2022-11-01T10:07:54.464Z,1.40
2022-11-01T10:10:34.089Z,1.73
2022-11-01T10:13:25.420Z,1.83
2022-11-01T10:16:19.574Z,1.90
2022-11-01T10:18:58.291Z,1.80
2022-11-01T10:21:29.598Z,1.88
2022-11-01T10:23:58.136Z,1.92
2022-11-01T10:26:30.063Z,2.10
2022-11-01T10:31:24.416Z,1.40
2022-11-01T10:34:02.468Z,2.03
2022-11-01T10:36:33.371Z,1.92
2022-11-01T10:42:09.918Z,1.50
2022-11-01T10:44:54.424Z,1.60
2022-11-01T10:47:22.978Z,1.92
2022-11-01T10:50:11.203Z,2.28
2022-11-01T10:53:02.270Z,2.22
2022-11-01T10:55:35.103Z,2.08
2022-11-01T10:58:24.262Z,2.55
2022-11-01T11:00:51.703Z,2.20
2022-11-01T11:03:24.536Z,1.92
2022-11-01T11:05:52.050Z,2.63
2022-11-01T11:08:21.569Z,1.92
2022-11-01T11:10:48.325Z,1.60
2022-11-01T11:13:19.027Z,1.90
2022-11-01T11:15:47.581Z,2.10
2022-11-01T11:18:42.085Z,2.40
2022-11-01T11:21:11.562Z,2.28
2022-11-01T11:23:43.124Z,2.00
2022-11-01T11:26:13.345Z,1.88
2022-11-01T11:28:44.125Z,2.30
2022-11-01T11:31:32.510Z,2.00
2022-11-01T11:34:22.451Z,1.75
2022-11-01T11:36:53.620Z,1.45
2022-11-01T11:39:31.168Z,2.03
2022-11-01T11:42:15.187Z,1.83
2022-11-01T11:44:48.275Z,2.08
2022-11-01T11:47:21.565Z,2.22
2022-11-01T11:49:50.016Z,1.65
2022-11-01T11:52:19.705Z,1.70
2022-11-01T11:54:46.763Z,1.70
2022-11-01T11:57:22.577Z,1.80
2022-11-01T12:00:21.096Z,2.10
2022-11-01T12:02:49.307Z,2.03
2022-11-01T12:05:22.485Z,2.00
2022-11-01T12:07:53.441Z,2.28
2022-11-01T12:10:36.469Z,2.38
2022-11-01T12:13:05.121Z,2.42
2022-11-01T12:15:38.305Z,1.80
2022-11-01T12:18:16.578Z,2.20
2022-11-01T12:20:43.957Z,2.05
2022-11-01T12:23:32.866Z,2.10
2022-11-01T12:26:01.603Z,2.15
2022-11-01T12:28:44.326Z,2.72
2022-11-01T12:31:17.867Z,2.10
2022-11-01T12:33:58.282Z,2.85
2022-11-01T12:36:29.038Z,1.80
2022-11-01T12:38:59.428Z,1.95
2022-11-01T12:41:38.375Z,2.37
2022-11-01T12:44:32.363Z,2.05
2022-11-01T12:47:17.674Z,2.00
2022-11-01T12:50:01.686Z,2.22
2022-11-01T12:52:32.893Z,2.05
2022-11-01T12:55:05.166Z,2.35
2022-11-01T12:57:32.345Z,1.63
2022-11-01T12:59:59.951Z,2.30
2022-11-01T13:02:37.751Z,2.35
2022-11-01T13:05:28.835Z,1.48
2022-11-01T13:08:10.356Z,1.98
2022-11-01T13:13:35.551Z,1.58
2022-11-01T13:16:13.936Z,1.52
2022-11-01T13:18:47.142Z,1.88
2022-11-01T13:21:20.740Z,1.65
2022-11-01T13:24:16.177Z,1.90
2022-11-01T13:26:54.685Z,2.28
2022-11-01T13:29:26.925Z,1.83
2022-11-01T13:32:16.473Z,1.55
2022-11-01T13:34:51.479Z,1.88
2022-11-01T13:37:27.198Z,2.00
2022-11-01T13:40:06.115Z,2.42
2022-11-01T13:43:09.606Z,1.92
2022-11-01T13:46:00.484Z,1.90
2022-11-01T13:48:48.598Z,1.90
2022-11-01T13:51:21.330Z,2.10
2022-11-01T13:54:10.570Z,1.75
2022-11-01T13:56:42.935Z,2.00
2022-11-01T13:59:28.480Z,1.85
2022-11-01T14:01:58.212Z,1.67
2022-11-01T14:04:24.695Z,2.05
2022-11-01T14:07:12.343Z,1.40
2022-11-01T14:09:53.433Z,1.42
2022-11-01T14:12:37.576Z,1.48
2022-11-01T14:15:25.044Z,1.60
2022-11-01T14:17:57.807Z,1.40
2022-11-01T14:20:31.414Z,2.08
2022-11-01T14:22:58.820Z,1.63
2022-11-01T14:25:32.550Z,1.55
2022-11-01T14:28:17.220Z,1.85
2022-11-01T14:30:53.381Z,2.10
2022-11-01T14:33:20.902Z,1.23
2022-11-01T14:35:54.230Z,1.23
2022-11-01T14:38:27.662Z,1.77
2022-11-01T14:40:56.713Z,1.30
2022-11-01T14:43:27.190Z,2.08
2022-11-01T14:46:02.969Z,1.73
2022-11-01T14:48:54.091Z,1.75
2022-11-01T14:51:37.253Z,1.85
2022-11-01T14:54:24.797Z,1.80
2022-11-01T14:56:53.280Z,2.10
2022-11-01T14:59:23.930Z,1.55
2022-11-01T15:02:02.100Z,1.73
2022-11-01T15:04:43.892Z,2.25
2022-11-01T15:07:35.815Z,1.55
2022-11-01T15:10:11.283Z,1.70
2022-11-01T15:12:48.595Z,1.85
2022-11-01T15:15:26.736Z,1.60
2022-11-01T15:18:13.697Z,1.88
2022-11-01T15:20:53.113Z,1.90
2022-11-01T15:23:29.166Z,1.75
2022-11-01T15:25:56.985Z,1.70
2022-11-01T15:28:31.700Z,1.90
2022-11-01T15:30:59.701Z,1.52
2022-11-01T15:33:33.373Z,1.80
2022-11-01T15:36:06.468Z,1.55
2022-11-01T15:38:35.615Z,2.15
2022-11-01T15:41:31.699Z,1.60
2022-11-01T15:44:00.261Z,1.85
2022-11-01T15:46:47.046Z,1.80
2022-11-01T15:49:26.074Z,1.90
2022-11-01T15:51:56.138Z,1.52
2022-11-01T15:54:32.119Z,1.77
2022-11-01T15:57:00.818Z,1.80
2022-11-01T15:59:34.452Z,2.28
2022-11-01T16:02:04.216Z,1.65
2022-11-01T16:04:40.405Z,1.65
2022-11-01T16:07:08.196Z,1.90
2022-11-01T16:09:37.372Z,1.92
2022-11-01T16:12:05.657Z,2.20
2022-11-01T16:14:37.773Z,1.83
2022-11-01T16:17:26.471Z,1.88
2022-11-01T16:19:53.271Z,1.50
2022-11-01T16:22:41.355Z,2.08
2022-11-01T16:25:08.669Z,1.73
2022-11-01T16:27:37.823Z,2.15
2022-11-01T16:30:10.133Z,1.88
2022-11-01T16:32:36.829Z,2.47
2022-11-01T16:35:29.463Z,2.00
2022-11-01T16:37:55.960Z,1.70
2022-11-01T16:40:24.343Z,1.73
2022-11-01T16:42:50.890Z,1.95
2022-11-01T16:45:17.758Z,2.10
2022-11-01T16:47:44.240Z,1.67
2022-11-01T16:50:16.776Z,2.15
2022-11-01T16:52:43.298Z,2.25
2022-11-01T16:55:14.091Z,2.17
2022-11-01T16:57:40.753Z,2.15
2022-11-01T17:00:11.877Z,1.95
2022-11-01T17:02:39.258Z,1.77
2022-11-01T17:05:18.748Z,2.58
2022-11-01T17:07:45.571Z,1.90
2022-11-01T17:10:29.932Z,1.55
2022-11-01T17:12:58.271Z,2.13
2022-11-01T17:15:26.840Z,2.13
2022-11-01T17:17:53.787Z,2.05
2022-11-01T17:20:23.920Z,2.30
2022-11-01T17:22:52.322Z,1.85
2022-11-01T17:25:20.216Z,1.75
2022-11-01T17:27:51.673Z,2.10
2022-11-01T17:30:19.335Z,2.30
2022-11-01T17:32:45.850Z,2.25
2022-11-01T17:35:12.562Z,2.10
2022-11-01T17:37:39.920Z,1.95
2022-11-01T17:40:17.028Z,1.90
2022-11-01T17:42:43.611Z,1.65
2022-11-01T17:45:11.851Z,2.22
2022-11-01T17:47:38.436Z,2.08
2022-11-01T17:50:06.685Z,1.67
2022-11-01T17:52:33.183Z,2.50
2022-11-01T17:54:59.654Z,2.42
2022-11-01T17:57:26.207Z,1.98
2022-11-01T17:59:52.700Z,2.28
2022-11-01T18:02:19.437Z,1.58
2022-11-01T18:04:46.128Z,2.10
2022-11-01T18:07:13.103Z,2.00
2022-11-01T18:09:39.699Z,2.17
2022-11-01T18:12:11.765Z,1.88
2022-11-01T18:15:02.446Z,2.70
2022-11-01T18:17:34.728Z,2.47
2022-11-01T18:20:13.067Z,3.03
2022-11-01T18:22:50.103Z,2.30
2022-11-01T18:25:24.945Z,2.40
2022-11-01T18:27:51.466Z,2.40
2022-11-01T18:30:19.435Z,1.90
2022-11-01T18:32:59.461Z,2.35
2022-11-01T18:35:55.918Z,1.95
2022-11-01T18:38:43.638Z,2.22
2022-11-01T18:41:13.337Z,2.10
2022-11-01T18:43:40.134Z,2.17
2022-11-01T18:46:27.459Z,1.85
2022-11-01T18:49:00.294Z,2.08
2022-11-01T18:51:28.753Z,2.35
2022-11-01T18:54:23.218Z,2.80
2022-11-01T18:57:16.023Z,1.90
2022-11-01T18:59:44.115Z,1.58
2022-11-01T19:02:10.701Z,2.03
2022-11-01T19:04:39.029Z,1.80
2022-11-01T19:07:14.158Z,1.95
2022-11-01T19:10:02.772Z,2.70
2022-11-01T19:12:36.595Z,1.75
2022-11-01T19:15:11.799Z,2.30
2022-11-01T19:17:41.345Z,2.70
2022-11-01T19:20:27.771Z,2.58
2022-11-01T19:22:59.265Z,1.90
2022-11-01T19:25:30.418Z,2.47
2022-11-01T19:28:01.328Z,2.35
2022-11-01T19:30:31.180Z,2.83
2022-11-01T19:33:05.731Z,2.55
2022-11-01T19:35:32.480Z,2.83
2022-11-01T19:37:59.016Z,2.83
2022-11-01T19:40:31.717Z,1.55
2022-11-01T19:43:21.638Z,2.00
2022-11-01T19:45:53.234Z,2.40
2022-11-01T19:48:27.790Z,2.65
2022-11-01T19:50:55.062Z,2.42
2022-11-01T19:53:28.658Z,2.40
2022-11-01T19:56:04.642Z,2.22
2022-11-01T19:58:48.795Z,2.20
2022-11-01T20:01:19.654Z,2.20
2022-11-01T20:03:48.163Z,2.17
2022-11-01T20:06:31.987Z,2.47
2022-11-01T20:09:04.279Z,2.42
2022-11-01T20:11:34.331Z,2.42
2022-11-01T20:14:01.018Z,2.67
2022-11-01T20:16:27.689Z,3.15
2022-11-01T20:18:54.469Z,3.40
2022-11-01T20:21:21.067Z,2.35
2022-11-01T20:23:47.804Z,2.50
2022-11-01T20:26:14.449Z,1.92
2022-11-01T20:28:41.056Z,2.40
2022-11-01T20:31:07.651Z,2.33
2022-11-01T20:33:34.535Z,2.60
2022-11-01T20:36:06.932Z,2.30
2022-11-01T20:38:36.784Z,2.47
2022-11-01T20:41:03.364Z,2.20
2022-11-01T20:43:30.739Z,2.40
2022-11-01T20:45:57.503Z,2.78
2022-11-01T20:48:25.094Z,2.75
2022-11-01T20:50:52.221Z,2.47
2022-11-01T20:53:18.755Z,2.67
2022-11-01T20:55:45.543Z,2.45
2022-11-01T20:58:14.025Z,3.42
2022-11-01T21:00:40.500Z,2.47
2022-11-01T21:03:17.951Z,2.45
2022-11-01T21:05:46.015Z,2.10
2022-11-01T21:08:25.363Z,2.92
2022-11-01T21:10:57.488Z,3.28
2022-11-01T21:13:25.240Z,3.08
2022-11-01T21:15:52.945Z,3.08
2022-11-01T21:18:19.384Z,2.72
2022-11-01T21:20:49.735Z,3.00
2022-11-01T21:23:29.241Z,2.43
2022-11-01T21:26:00.024Z,3.20
2022-11-01T21:28:39.991Z,2.50
2022-11-01T21:31:15.526Z,2.55
2022-11-01T21:33:44.440Z,2.33
2022-11-01T21:36:19.645Z,2.58
2022-11-01T21:38:52.095Z,3.03
2022-11-01T21:41:28.920Z,2.25
2022-11-01T21:43:58.673Z,2.92
2022-11-01T21:46:37.471Z,3.00
2022-11-01T21:49:21.623Z,2.47
2022-11-01T21:51:48.308Z,2.08
2022-11-01T21:54:14.855Z,2.80
2022-11-01T21:56:41.415Z,2.75
2022-11-01T21:59:07.882Z,2.47
2022-11-01T22:01:34.482Z,2.97
2022-11-01T22:04:01.080Z,2.28
2022-11-01T22:06:27.586Z,2.25
2022-11-01T22:08:54.052Z,2.95
2022-11-01T22:11:23.620Z,2.55
2022-11-01T22:13:50.497Z,2.72
2022-11-01T22:16:16.981Z,2.50
2022-11-01T22:18:43.494Z,2.47
2022-11-01T22:21:10.004Z,2.58
2022-11-01T22:23:36.794Z,2.80
2022-11-01T22:26:03.307Z,1.92
2022-11-01T22:28:29.808Z,2.90
2022-11-01T22:30:56.283Z,2.05
2022-11-01T22:33:22.949Z,2.17
2022-11-01T22:35:49.606Z,2.40
2022-11-01T22:38:19.391Z,2.50
2022-11-01T22:41:01.516Z,2.20
2022-11-01T22:43:28.441Z,2.53
2022-11-01T22:45:55.148Z,2.80
2022-11-01T22:48:22.880Z,2.83
2022-11-01T22:50:49.714Z,2.13
2022-11-01T22:53:21.252Z,2.40
2022-11-01T22:55:49.694Z,2.90
2022-11-01T22:58:45.281Z,2.13
2022-11-01T23:01:19.512Z,2.67
2022-11-01T23:03:51.765Z,2.28
2022-11-01T23:06:20.997Z,2.42
2022-11-01T23:08:47.871Z,2.88
2022-11-01T23:11:37.895Z,2.70
2022-11-01T23:14:37.418Z,2.78
2022-11-01T23:17:15.968Z,2.58
2022-11-01T23:19:42.488Z,2.53
2022-11-01T23:22:21.184Z,2.42
2022-11-01T23:24:48.992Z,2.60
2022-11-01T23:27:15.546Z,2.35
2022-11-01T23:29:42.381Z,2.40
2022-11-01T23:32:09.414Z,2.13
2022-11-01T23:34:35.879Z,2.50
2022-11-01T23:37:02.397Z,2.00
2022-11-01T23:39:34.031Z,2.20
2022-11-01T23:42:00.527Z,2.40
2022-11-01T23:44:29.031Z,3.45
2022-11-01T23:47:01.295Z,1.90
2022-11-01T23:49:30.185Z,2.70
2022-11-01T23:51:56.845Z,2.20
2022-11-01T23:54:30.716Z,2.47
2022-11-01T23:56:57.294Z,1.92
2022-11-01T23:59:24.325Z,2.17
